Terminal Aerodrome Forecast
Issued by NWS

Home | Current Version | Previous Version | Graphics & Text | Print | Product List | Glossary On
Versions: 1 2 3 4 5 6 7 8 9 10 11 12 13 14 15
000
FTUS43 KICT 021720
TAFSLN
TAF
KSLN 021720Z 0218/0318 19020G28KT P6SM SKC
     FM030100 18013KT P6SM SKC
     FM031400 19018G25KT P6SM BKN120=

USA.gov is the U.S. government's official web portal to all federal, state and local government web resources and services.